Historyczne dane pomiarowe

Dodano dane terminowe – wersja testowa.

Dane z okresu 1951-2019

Wersja bazy: 1.34 [2019-03-16, lista zmian], aktualizacja planowana na 2019-04-15

Dane meteo z obszaru Polski uzyskane na podstawie danych udostępnionych przez Instytut Meteorologii i Gospodarki Wodnej – Państwowy Instytut Badawczy.

 

Wybierz Datę:    

       

TemperaturaWilgotnośćWiatrCiśnienieOpadyŚniegCzas trwania zjawisk
 Stacja t tx tn tng RH VA  wxwx mslp ppp RRR   cm mm wxwxwxwxwxwxwx
1983-08-14 14.8 18.1 10.3 7.7 73.5- 5.0 3.7---- 0.0------------
1983-08-13 16.2 20.6 11.9 11.6 83.3- 5.0 4.3---- 0.3------------
1983-08-12 19.5 25.1 12.8 10.7 66.5- 1.7 2.0---- 8.8------------
1983-08-11 19.9 27.2 12.2 10.3 75.0- 1.7 0.3---- 0.0------------
1983-08-10 19.0 26.0 11.7 10.3 77.5- 4.3 1.3---- 0.0------------
1983-08-09 18.5 25.2 12.9 11.0 85.8- 3.3 0.0---- 0.5------------
1983-08-08 16.8 21.5 12.6 10.8 90.0- 8.0 1.0---- 0.5------------
1983-08-07 15.1 17.8 10.9 10.3 91.5- 7.0 1.3---- 4.5------------
1983-08-06 15.1 18.7 10.4 10.6 83.0- 7.0 1.3---- 0.0------------
1983-08-05 12.8 16.9 9.7 10.1 95.5- 7.3 0.7---- 0.0------------
1983-08-04 10.4 11.3 10.0 10.3 94.3- 8.0 3.7---- 43.2------------
1983-08-03 14.2 23.5 10.7 12.3 90.0- 8.0 4.7---- 36.0------------
1983-08-02 20.8 31.2 18.0 17.8 76.8- 4.7 1.7---- 10.1------------
1983-08-01 24.8 35.5 14.7 12.8 46.5- 1.0 1.0---- 4.9------------
1983-07-31 20.2 28.5 10.7 6.7 57.8- 0.0 0.3---- 0.0------------
1983-07-30 19.4 23.5 16.2 16.3 71.3- 4.3 3.7---- 0.0------------
1983-07-29 18.0 23.6 14.7 13.0 79.0- 4.7 3.7---- 2.4------------
1983-07-28 23.2 30.0 18.7 16.3 59.3- 3.7 2.3---- 0.0------------
1983-07-27 25.8 34.4 16.5 14.1 49.3- 2.3 1.0---- 0.0------------
1983-07-26 21.3 30.0 10.8 7.7 56.0- 0.0 1.0---- 0.0------------
1983-07-25 20.1 26.0 12.0 7.7 59.5- 0.0 0.7---- 0.0------------
1983-07-24 20.1 27.0 12.2 9.2 61.8- 2.3 2.7---- 0.0------------
1983-07-23 20.0 26.2 11.2 9.2 69.0- 0.0 1.7---- 0.0------------
1983-07-22 16.5 23.6 11.2 8.2 75.8- 4.3 3.0---- 0.0------------
1983-07-21 13.6 17.6 8.4 7.7 60.3- 2.3 2.7---- 0.0------------
1983-07-20 14.3 19.6 10.2 12.3 79.0- 7.0 2.3---- 3.3------------
1983-07-19 19.6 28.9 16.4 16.0 87.8- 8.0 2.3---- 7.5------------
1983-07-18 26.2 33.5 17.9 15.0 58.5- 3.3 2.7---- 4.2------------
1983-07-17 21.0 28.0 14.7 12.6 77.3- 0.3 0.3---- 0.0------------
1983-07-16 20.3 27.5 15.7 14.3 75.5- 1.3 3.0---- 11.7------------
1983-07-15 19.9 25.8 15.1 14.8 69.3- 0.3 2.3---- 0.0------------
1983-07-14 18.2 24.5 13.5 14.1 74.3- 6.3 4.0---- 0.0------------
1983-07-13 19.7 25.5 14.4 12.3 72.3- 2.7 5.0---- 0.0------------
1983-07-12 23.5 30.4 16.6 15.8 62.3- 5.0 3.0---- 8.2------------
1983-07-11 23.7 30.5 16.2 12.8 51.3- 4.0 2.3---- 0.0------------
1983-07-10 23.2 31.5 15.7 10.8 50.5- 1.3 1.0---- 0.0------------
1983-07-09 22.0 29.5 12.9 8.9 48.0- 0.0 2.3---- 0.0------------
1983-07-08 23.0 28.5 14.7 12.8 40.0- 0.0 1.3---- 0.0------------
1983-07-07 24.6 30.4 17.8 15.8 51.0- 2.3 1.7---- 0.0------------
1983-07-06 23.3 29.7 15.5 11.3 48.3- 0.0 2.3---- 0.0------------
1983-07-05 20.1 26.5 13.0 10.3 56.8- 0.3 1.0---- 0.0------------
1983-07-04 20.1 26.2 12.6 9.4 64.8- 1.0 2.3---- 0.0------------
1983-07-03 18.9 24.7 9.7 6.3 73.5- 3.0 1.0---- 0.0------------
1983-07-02 17.2 22.1 13.1 12.3 79.8- 4.0 0.0---- 0.0------------
1983-07-01 18.7 23.6 13.9 10.1 81.8- 3.7 2.0---- 0.2------------
1983-06-30 18.6 24.6 12.0 7.8 69.8- 3.3 3.0---- 0.0------------
1983-06-29 14.0 19.1 6.7 4.2 73.5- 6.0 2.7---- 0.0------------
1983-06-28 13.8 18.7 12.3 12.3 77.8- 4.7 3.7---- 0.0------------
1983-06-27 18.2 21.8 14.0 12.8 84.8- 8.0 3.7---- 12.3------------
1983-06-26 19.2 26.0 14.0 11.3 78.5- 2.3 2.7---- 0.0------------
1983-06-25 21.4 28.0 16.5 12.3 65.3- 0.0 2.3---- 0.0------------
1983-06-24 21.0 29.4 9.5 4.7 56.3- 0.0 0.7---- 0.0------------
1983-06-23 17.7 23.9 9.1 4.7 52.8- 0.0 2.3---- 0.0------------
1983-06-22 16.8 24.5 9.4 8.7 60.0- 0.0 3.7---- 0.0------------
1983-06-21 20.8 26.7 13.2 8.7 63.0- 1.3 2.7---- 0.0------------
1983-06-20 18.8 25.3 11.2 9.6 48.0- 1.0 2.7---- 0.0------------
1983-06-19 16.4 22.6 9.7 10.1 66.8- 3.7 2.7---- 0.0------------
1983-06-18 13.3 16.6 9.8 8.4 79.0- 7.7 3.0---- 0.0------------
1983-06-17 11.4 15.1 8.2 7.7 72.0- 5.7 2.3---- 0.4------------
1983-06-16 11.9 14.6 8.2 8.7 75.3- 4.3 3.3---- 0.0------------
627.8 ms

 

Źródłem pochodzenia danych jest Instytut Meteorologii i Gospodarki Wodnej – Państwowy Instytut Badawczy. Dane Instytutu Meteorologii i Gospodarki Wodnej – Państwowego Instytutu Badawczego zostały przetworzone.

Dane źródłowe można odnaleźć na stronie https://dane.imgw.pl